sensor_id;sensor_type;location;lat;lon;timestamp;temperature;humidity
81161;DHT22;70637;48.514;14.500;2023-10-19T00:01:58;27.30;43.40
81161;DHT22;70637;48.514;14.500;2023-10-19T00:04:27;27.20;43.30
81161;DHT22;70637;48.514;14.500;2023-10-19T00:06:58;27.30;43.40
81161;DHT22;70637;48.514;14.500;2023-10-19T00:09:23;27.30;43.40
81161;DHT22;70637;48.514;14.500;2023-10-19T00:11:50;27.30;43.40
81161;DHT22;70637;48.514;14.500;2023-10-19T00:14:18;27.30;43.40
81161;DHT22;70637;48.514;14.500;2023-10-19T00:16:45;27.30;43.40
81161;DHT22;70637;48.514;14.500;2023-10-19T00:19:20;27.20;43.30
81161;DHT22;70637;48.514;14.500;2023-10-19T00:21:48;27.30;43.40
81161;DHT22;70637;48.514;14.500;2023-10-19T00:24:19;27.30;43.40
81161;DHT22;70637;48.514;14.500;2023-10-19T00:26:47;27.20;43.30
81161;DHT22;70637;48.514;14.500;2023-10-19T00:29:14;27.30;43.40
81161;DHT22;70637;48.514;14.500;2023-10-19T00:31:55;27.30;43.40
81161;DHT22;70637;48.514;14.500;2023-10-19T00:34:21;27.30;43.30
81161;DHT22;70637;48.514;14.500;2023-10-19T00:36:49;27.30;43.30
81161;DHT22;70637;48.514;14.500;2023-10-19T00:39:16;27.30;43.40
81161;DHT22;70637;48.514;14.500;2023-10-19T00:41:46;27.20;43.30
81161;DHT22;70637;48.514;14.500;2023-10-19T00:44:13;27.30;43.30
81161;DHT22;70637;48.514;14.500;2023-10-19T00:46:43;27.30;43.40
81161;DHT22;70637;48.514;14.500;2023-10-19T00:49:15;27.20;43.30
81161;DHT22;70637;48.514;14.500;2023-10-19T00:51:45;27.20;43.30
81161;DHT22;70637;48.514;14.500;2023-10-19T00:54:34;27.20;43.30
81161;DHT22;70637;48.514;14.500;2023-10-19T00:57:04;27.20;43.30
81161;DHT22;70637;48.514;14.500;2023-10-19T00:59:37;27.20;43.30
81161;DHT22;70637;48.514;14.500;2023-10-19T01:02:14;27.30;43.40
81161;DHT22;70637;48.514;14.500;2023-10-19T01:04:49;27.20;43.30
81161;DHT22;70637;48.514;14.500;2023-10-19T01:07:25;27.20;43.20
81161;DHT22;70637;48.514;14.500;2023-10-19T01:09:51;27.20;43.30
81161;DHT22;70637;48.514;14.500;2023-10-19T01:12:21;27.20;43.30
81161;DHT22;70637;48.514;14.500;2023-10-19T01:18:04;27.20;43.30
81161;DHT22;70637;48.514;14.500;2023-10-19T01:20:31;27.20;43.30
81161;DHT22;70637;48.514;14.500;2023-10-19T01:23:05;27.20;43.30
81161;DHT22;70637;48.514;14.500;2023-10-19T01:28:34;27.20;43.30
81161;DHT22;70637;48.514;14.500;2023-10-19T01:31:07;27.20;43.30
81161;DHT22;70637;48.514;14.500;2023-10-19T01:33:32;27.20;43.30
81161;DHT22;70637;48.514;14.500;2023-10-19T01:36:00;27.20;43.30
81161;DHT22;70637;48.514;14.500;2023-10-19T01:38:40;27.20;43.30
81161;DHT22;70637;48.514;14.500;2023-10-19T01:41:07;27.20;43.30
81161;DHT22;70637;48.514;14.500;2023-10-19T01:43:40;27.20;43.30
81161;DHT22;70637;48.514;14.500;2023-10-19T01:46:06;27.20;43.20
81161;DHT22;70637;48.514;14.500;2023-10-19T01:48:42;27.20;43.20
81161;DHT22;70637;48.514;14.500;2023-10-19T01:51:09;27.20;43.30
81161;DHT22;70637;48.514;14.500;2023-10-19T01:53:37;27.20;43.20
81161;DHT22;70637;48.514;14.500;2023-10-19T01:56:05;27.20;43.20
81161;DHT22;70637;48.514;14.500;2023-10-19T01:58:38;27.20;43.20
81161;DHT22;70637;48.514;14.500;2023-10-19T02:01:05;27.20;43.20
81161;DHT22;70637;48.514;14.500;2023-10-19T02:03:40;27.20;43.20
81161;DHT22;70637;48.514;14.500;2023-10-19T02:06:11;27.20;43.20
81161;DHT22;70637;48.514;14.500;2023-10-19T02:08:48;27.20;43.10
81161;DHT22;70637;48.514;14.500;2023-10-19T02:11:25;27.20;43.20
81161;DHT22;70637;48.514;14.500;2023-10-19T02:13:55;27.20;43.20
81161;DHT22;70637;48.514;14.500;2023-10-19T02:16:25;27.20;43.20
81161;DHT22;70637;48.514;14.500;2023-10-19T02:18:52;27.20;43.20
81161;DHT22;70637;48.514;14.500;2023-10-19T02:21:18;27.20;43.20
81161;DHT22;70637;48.514;14.500;2023-10-19T02:23:50;27.20;43.20
81161;DHT22;70637;48.514;14.500;2023-10-19T02:26:20;27.20;43.10
81161;DHT22;70637;48.514;14.500;2023-10-19T02:28:48;27.20;43.20
81161;DHT22;70637;48.514;14.500;2023-10-19T02:31:17;27.20;43.10
81161;DHT22;70637;48.514;14.500;2023-10-19T02:33:51;27.20;43.10
81161;DHT22;70637;48.514;14.500;2023-10-19T02:36:28;27.20;43.10
81161;DHT22;70637;48.514;14.500;2023-10-19T02:39:05;27.20;43.10
81161;DHT22;70637;48.514;14.500;2023-10-19T02:41:39;27.10;43.00
81161;DHT22;70637;48.514;14.500;2023-10-19T02:44:08;27.20;43.10
81161;DHT22;70637;48.514;14.500;2023-10-19T02:46:36;27.10;43.10
81161;DHT22;70637;48.514;14.500;2023-10-19T02:49:07;27.10;43.10
81161;DHT22;70637;48.514;14.500;2023-10-19T02:51:40;27.20;43.10
81161;DHT22;70637;48.514;14.500;2023-10-19T02:54:07;27.10;43.00
81161;DHT22;70637;48.514;14.500;2023-10-19T02:56:35;27.10;43.00
81161;DHT22;70637;48.514;14.500;2023-10-19T02:59:02;27.10;43.00
81161;DHT22;70637;48.514;14.500;2023-10-19T03:01:30;27.10;43.00
81161;DHT22;70637;48.514;14.500;2023-10-19T03:04:03;27.10;43.00
81161;DHT22;70637;48.514;14.500;2023-10-19T03:06:30;27.10;43.00
81161;DHT22;70637;48.514;14.500;2023-10-19T03:08:59;27.10;43.00
81161;DHT22;70637;48.514;14.500;2023-10-19T03:11:30;27.10;43.00
81161;DHT22;70637;48.514;14.500;2023-10-19T03:13:58;27.20;43.10
81161;DHT22;70637;48.514;14.500;2023-10-19T03:16:24;27.10;43.10
81161;DHT22;70637;48.514;14.500;2023-10-19T03:18:52;27.10;43.00
81161;DHT22;70637;48.514;14.500;2023-10-19T03:21:20;27.10;43.10
81161;DHT22;70637;48.514;14.500;2023-10-19T03:23:52;27.10;43.00
81161;DHT22;70637;48.514;14.500;2023-10-19T03:26:19;27.10;42.90
81161;DHT22;70637;48.514;14.500;2023-10-19T03:28:50;27.10;43.00
81161;DHT22;70637;48.514;14.500;2023-10-19T03:31:21;27.10;42.90
81161;DHT22;70637;48.514;14.500;2023-10-19T03:33:48;27.10;42.90
81161;DHT22;70637;48.514;14.500;2023-10-19T03:36:16;27.10;43.00
81161;DHT22;70637;48.514;14.500;2023-10-19T03:38:42;27.10;43.00
81161;DHT22;70637;48.514;14.500;2023-10-19T03:41:09;27.10;42.90
81161;DHT22;70637;48.514;14.500;2023-10-19T03:43:36;27.10;42.90
81161;DHT22;70637;48.514;14.500;2023-10-19T03:46:08;27.10;42.80
81161;DHT22;70637;48.514;14.500;2023-10-19T03:48:48;27.10;42.90
81161;DHT22;70637;48.514;14.500;2023-10-19T03:51:13;27.10;42.80
81161;DHT22;70637;48.514;14.500;2023-10-19T03:53:40;27.10;42.80
81161;DHT22;70637;48.514;14.500;2023-10-19T03:56:20;27.10;42.90
81161;DHT22;70637;48.514;14.500;2023-10-19T03:58:46;27.10;42.80
81161;DHT22;70637;48.514;14.500;2023-10-19T04:01:16;27.10;42.80
81161;DHT22;70637;48.514;14.500;2023-10-19T04:03:43;27.10;42.80
81161;DHT22;70637;48.514;14.500;2023-10-19T04:06:09;27.10;42.90
81161;DHT22;70637;48.514;14.500;2023-10-19T04:08:40;27.10;42.90
81161;DHT22;70637;48.514;14.500;2023-10-19T04:11:06;27.10;42.80
81161;DHT22;70637;48.514;14.500;2023-10-19T04:13:37;27.10;42.80
81161;DHT22;70637;48.514;14.500;2023-10-19T04:16:03;27.10;42.80
81161;DHT22;70637;48.514;14.500;2023-10-19T04:18:29;27.10;42.80
81161;DHT22;70637;48.514;14.500;2023-10-19T04:20:54;27.10;42.80
81161;DHT22;70637;48.514;14.500;2023-10-19T04:23:24;27.10;42.80
81161;DHT22;70637;48.514;14.500;2023-10-19T04:25:53;27.10;43.80
81161;DHT22;70637;48.514;14.500;2023-10-19T04:28:22;27.00;42.70
81161;DHT22;70637;48.514;14.500;2023-10-19T04:30:57;27.10;42.70
81161;DHT22;70637;48.514;14.500;2023-10-19T04:33:30;27.10;42.80
81161;DHT22;70637;48.514;14.500;2023-10-19T04:35:57;27.10;42.80
81161;DHT22;70637;48.514;14.500;2023-10-19T04:38:26;27.00;42.80
81161;DHT22;70637;48.514;14.500;2023-10-19T04:40:52;27.10;42.90
81161;DHT22;70637;48.514;14.500;2023-10-19T04:43:17;27.00;43.00
81161;DHT22;70637;48.514;14.500;2023-10-19T04:45:43;27.10;43.20
81161;DHT22;70637;48.514;14.500;2023-10-19T04:48:11;27.10;43.20
81161;DHT22;70637;48.514;14.500;2023-10-19T04:50:37;27.10;43.30
81161;DHT22;70637;48.514;14.500;2023-10-19T04:53:02;27.10;43.30
81161;DHT22;70637;48.514;14.500;2023-10-19T04:55:31;27.10;43.40
81161;DHT22;70637;48.514;14.500;2023-10-19T04:57:57;27.00;43.40
81161;DHT22;70637;48.514;14.500;2023-10-19T05:00:23;27.10;43.50
81161;DHT22;70637;48.514;14.500;2023-10-19T05:02:50;27.10;43.50
81161;DHT22;70637;48.514;14.500;2023-10-19T05:05:18;27.10;43.50
81161;DHT22;70637;48.514;14.500;2023-10-19T05:07:44;27.10;43.50
81161;DHT22;70637;48.514;14.500;2023-10-19T05:10:10;27.10;43.50
81161;DHT22;70637;48.514;14.500;2023-10-19T05:12:36;27.10;43.50
81161;DHT22;70637;48.514;14.500;2023-10-19T05:15:02;27.10;43.40
81161;DHT22;70637;48.514;14.500;2023-10-19T05:17:28;27.10;43.20
81161;DHT22;70637;48.514;14.500;2023-10-19T05:19:54;27.10;42.80
81161;DHT22;70637;48.514;14.500;2023-10-19T05:22:19;27.00;42.50
81161;DHT22;70637;48.514;14.500;2023-10-19T05:24:46;27.00;42.00
81161;DHT22;70637;48.514;14.500;2023-10-19T05:27:13;27.00;41.90
81161;DHT22;70637;48.514;14.500;2023-10-19T05:29:38;27.00;41.70
81161;DHT22;70637;48.514;14.500;2023-10-19T05:32:05;27.00;41.20
81161;DHT22;70637;48.514;14.500;2023-10-19T05:34:31;27.00;40.80
81161;DHT22;70637;48.514;14.500;2023-10-19T05:37:01;26.90;40.50
81161;DHT22;70637;48.514;14.500;2023-10-19T05:39:28;26.90;40.50
81161;DHT22;70637;48.514;14.500;2023-10-19T05:41:55;26.90;40.20
81161;DHT22;70637;48.514;14.500;2023-10-19T05:44:20;26.90;39.90
81161;DHT22;70637;48.514;14.500;2023-10-19T05:46:46;26.90;39.70
81161;DHT22;70637;48.514;14.500;2023-10-19T05:49:12;26.90;39.40
81161;DHT22;70637;48.514;14.500;2023-10-19T05:51:38;26.90;39.20
81161;DHT22;70637;48.514;14.500;2023-10-19T05:54:04;26.90;38.90
81161;DHT22;70637;48.514;14.500;2023-10-19T05:56:33;26.80;38.50
81161;DHT22;70637;48.514;14.500;2023-10-19T05:59:01;26.80;38.30
81161;DHT22;70637;48.514;14.500;2023-10-19T06:01:27;26.80;38.10
81161;DHT22;70637;48.514;14.500;2023-10-19T06:03:53;26.80;37.90
81161;DHT22;70637;48.514;14.500;2023-10-19T06:06:20;26.80;37.60
81161;DHT22;70637;48.514;14.500;2023-10-19T06:08:46;26.80;37.30
81161;DHT22;70637;48.514;14.500;2023-10-19T06:11:12;26.90;37.10
81161;DHT22;70637;48.514;14.500;2023-10-19T06:13:37;26.90;37.00
81161;DHT22;70637;48.514;14.500;2023-10-19T06:16:03;26.90;36.80
81161;DHT22;70637;48.514;14.500;2023-10-19T06:18:29;26.90;36.60
81161;DHT22;70637;48.514;14.500;2023-10-19T06:20:55;26.90;36.40
81161;DHT22;70637;48.514;14.500;2023-10-19T06:23:21;26.90;36.20
81161;DHT22;70637;48.514;14.500;2023-10-19T06:25:47;26.90;36.80
81161;DHT22;70637;48.514;14.500;2023-10-19T06:28:13;26.90;36.00
81161;DHT22;70637;48.514;14.500;2023-10-19T06:30:39;26.90;35.80
81161;DHT22;70637;48.514;14.500;2023-10-19T06:33:08;26.90;35.70
81161;DHT22;70637;48.514;14.500;2023-10-19T06:35:34;26.90;35.50
81161;DHT22;70637;48.514;14.500;2023-10-19T06:38:01;27.00;35.50
81161;DHT22;70637;48.514;14.500;2023-10-19T06:40:29;27.00;36.40
81161;DHT22;70637;48.514;14.500;2023-10-19T06:42:56;26.90;36.30
81161;DHT22;70637;48.514;14.500;2023-10-19T06:45:22;26.90;35.10
81161;DHT22;70637;48.514;14.500;2023-10-19T06:47:50;26.90;34.90
81161;DHT22;70637;48.514;14.500;2023-10-19T06:50:18;26.90;34.70
81161;DHT22;70637;48.514;14.500;2023-10-19T06:52:46;26.90;34.80
81161;DHT22;70637;48.514;14.500;2023-10-19T06:55:16;26.90;34.90
81161;DHT22;70637;48.514;14.500;2023-10-19T06:57:44;26.80;34.80
81161;DHT22;70637;48.514;14.500;2023-10-19T07:00:14;26.90;34.90
81161;DHT22;70637;48.514;14.500;2023-10-19T07:02:44;26.90;34.90
81161;DHT22;70637;48.514;14.500;2023-10-19T07:05:10;26.90;34.90
81161;DHT22;70637;48.514;14.500;2023-10-19T07:07:45;26.90;34.90
81161;DHT22;70637;48.514;14.500;2023-10-19T07:10:12;27.00;34.90
81161;DHT22;70637;48.514;14.500;2023-10-19T07:12:44;26.90;34.90
81161;DHT22;70637;48.514;14.500;2023-10-19T07:15:10;26.90;35.00
81161;DHT22;70637;48.514;14.500;2023-10-19T07:17:48;26.90;35.10
81161;DHT22;70637;48.514;14.500;2023-10-19T07:20:16;26.90;35.10
81161;DHT22;70637;48.514;14.500;2023-10-19T07:22:54;27.00;35.20
81161;DHT22;70637;48.514;14.500;2023-10-19T07:25:21;26.90;35.20
81161;DHT22;70637;48.514;14.500;2023-10-19T07:27:48;27.00;35.30
81161;DHT22;70637;48.514;14.500;2023-10-19T07:30:16;27.00;35.30
81161;DHT22;70637;48.514;14.500;2023-10-19T07:32:46;27.00;35.30
81161;DHT22;70637;48.514;14.500;2023-10-19T07:35:14;27.00;35.30
81161;DHT22;70637;48.514;14.500;2023-10-19T07:37:41;27.00;35.30
81161;DHT22;70637;48.514;14.500;2023-10-19T07:40:07;27.00;36.30
81161;DHT22;70637;48.514;14.500;2023-10-19T07:42:36;27.00;35.30
81161;DHT22;70637;48.514;14.500;2023-10-19T07:45:02;27.00;35.40
81161;DHT22;70637;48.514;14.500;2023-10-19T07:47:28;27.00;35.30
81161;DHT22;70637;48.514;14.500;2023-10-19T07:49:53;27.00;35.30
81161;DHT22;70637;48.514;14.500;2023-10-19T07:52:22;27.00;35.30
81161;DHT22;70637;48.514;14.500;2023-10-19T07:54:48;27.00;35.30
81161;DHT22;70637;48.514;14.500;2023-10-19T07:57:14;27.00;35.30
81161;DHT22;70637;48.514;14.500;2023-10-19T07:59:41;27.00;35.30
81161;DHT22;70637;48.514;14.500;2023-10-19T08:02:08;27.00;35.30
81161;DHT22;70637;48.514;14.500;2023-10-19T08:04:33;27.00;35.30
81161;DHT22;70637;48.514;14.500;2023-10-19T08:06:59;27.00;35.40
81161;DHT22;70637;48.514;14.500;2023-10-19T08:09:25;27.10;35.50
81161;DHT22;70637;48.514;14.500;2023-10-19T08:11:55;27.00;35.40
81161;DHT22;70637;48.514;14.500;2023-10-19T08:14:25;27.00;35.50
81161;DHT22;70637;48.514;14.500;2023-10-19T08:16:51;27.00;35.40
81161;DHT22;70637;48.514;14.500;2023-10-19T08:19:17;27.10;35.60
81161;DHT22;70637;48.514;14.500;2023-10-19T08:21:44;27.00;35.60
81161;DHT22;70637;48.514;14.500;2023-10-19T08:24:10;27.00;35.50
81161;DHT22;70637;48.514;14.500;2023-10-19T08:26:42;27.10;35.70
81161;DHT22;70637;48.514;14.500;2023-10-19T08:29:08;27.00;35.60
81161;DHT22;70637;48.514;14.500;2023-10-19T08:31:41;27.10;35.80
81161;DHT22;70637;48.514;14.500;2023-10-19T08:34:10;27.10;35.70
81161;DHT22;70637;48.514;14.500;2023-10-19T08:36:37;27.10;35.80
81161;DHT22;70637;48.514;14.500;2023-10-19T08:39:08;27.00;35.80
81161;DHT22;70637;48.514;14.500;2023-10-19T08:41:39;27.00;35.80
81161;DHT22;70637;48.514;14.500;2023-10-19T08:44:06;27.10;35.80
81161;DHT22;70637;48.514;14.500;2023-10-19T08:46:42;27.00;35.80
81161;DHT22;70637;48.514;14.500;2023-10-19T08:49:10;27.10;35.70
81161;DHT22;70637;48.514;14.500;2023-10-19T08:51:38;27.10;35.60
81161;DHT22;70637;48.514;14.500;2023-10-19T08:54:05;27.10;35.50
81161;DHT22;70637;48.514;14.500;2023-10-19T08:56:32;27.10;35.40
81161;DHT22;70637;48.514;14.500;2023-10-19T08:58:59;27.10;35.40
81161;DHT22;70637;48.514;14.500;2023-10-19T09:01:27;27.10;35.30
81161;DHT22;70637;48.514;14.500;2023-10-19T09:03:57;27.10;35.30
81161;DHT22;70637;48.514;14.500;2023-10-19T09:06:22;27.10;35.20
81161;DHT22;70637;48.514;14.500;2023-10-19T09:08:48;27.10;35.20
81161;DHT22;70637;48.514;14.500;2023-10-19T09:11:14;27.10;35.30
81161;DHT22;70637;48.514;14.500;2023-10-19T09:13:51;27.10;35.20
81161;DHT22;70637;48.514;14.500;2023-10-19T09:16:21;27.10;35.10
81161;DHT22;70637;48.514;14.500;2023-10-19T09:18:47;27.10;35.20
81161;DHT22;70637;48.514;14.500;2023-10-19T09:21:17;27.20;35.30
81161;DHT22;70637;48.514;14.500;2023-10-19T09:23:53;27.10;35.20
81161;DHT22;70637;48.514;14.500;2023-10-19T09:26:20;27.10;35.30
81161;DHT22;70637;48.514;14.500;2023-10-19T09:28:51;27.20;35.40
81161;DHT22;70637;48.514;14.500;2023-10-19T09:31:20;27.10;35.40
81161;DHT22;70637;48.514;14.500;2023-10-19T09:33:47;27.10;35.40
81161;DHT22;70637;48.514;14.500;2023-10-19T09:36:18;27.10;35.40
81161;DHT22;70637;48.514;14.500;2023-10-19T09:38:47;27.10;35.40
81161;DHT22;70637;48.514;14.500;2023-10-19T09:41:15;27.10;35.50
81161;DHT22;70637;48.514;14.500;2023-10-19T09:43:44;27.10;35.50
81161;DHT22;70637;48.514;14.500;2023-10-19T09:46:11;27.20;35.70
81161;DHT22;70637;48.514;14.500;2023-10-19T09:48:46;27.20;35.80
81161;DHT22;70637;48.514;14.500;2023-10-19T09:51:13;27.20;35.70
81161;DHT22;70637;48.514;14.500;2023-10-19T09:53:43;27.20;35.70
81161;DHT22;70637;48.514;14.500;2023-10-19T09:56:24;27.20;35.70
81161;DHT22;70637;48.514;14.500;2023-10-19T09:58:55;27.20;35.70
81161;DHT22;70637;48.514;14.500;2023-10-19T10:01:24;27.20;35.70
81161;DHT22;70637;48.514;14.500;2023-10-19T10:03:52;27.20;35.80
81161;DHT22;70637;48.514;14.500;2023-10-19T10:08:55;27.20;35.70
81161;DHT22;70637;48.514;14.500;2023-10-19T10:13:50;27.20;35.70
81161;DHT22;70637;48.514;14.500;2023-10-19T10:16:26;27.20;35.80
81161;DHT22;70637;48.514;14.500;2023-10-19T10:18:58;27.20;35.90
81161;DHT22;70637;48.514;14.500;2023-10-19T10:21:28;27.20;35.90
81161;DHT22;70637;48.514;14.500;2023-10-19T10:23:57;27.20;36.10
81161;DHT22;70637;48.514;14.500;2023-10-19T10:26:25;27.20;36.40
81161;DHT22;70637;48.514;14.500;2023-10-19T10:31:47;27.20;36.70
81161;DHT22;70637;48.514;14.500;2023-10-19T10:37:05;27.20;36.70
81161;DHT22;70637;48.514;14.500;2023-10-19T10:39:33;27.20;37.80
81161;DHT22;70637;48.514;14.500;2023-10-19T10:42:03;27.20;36.70
81161;DHT22;70637;48.514;14.500;2023-10-19T10:44:46;27.20;36.80
81161;DHT22;70637;48.514;14.500;2023-10-19T10:47:22;27.20;36.80
81161;DHT22;70637;48.514;14.500;2023-10-19T10:49:53;27.20;36.80
81161;DHT22;70637;48.514;14.500;2023-10-19T10:52:32;27.20;36.80
81161;DHT22;70637;48.514;14.500;2023-10-19T10:55:07;27.20;36.90
81161;DHT22;70637;48.514;14.500;2023-10-19T10:57:33;27.20;36.90
81161;DHT22;70637;48.514;14.500;2023-10-19T11:00:10;27.20;38.00
81161;DHT22;70637;48.514;14.500;2023-10-19T11:02:41;27.20;37.00
81161;DHT22;70637;48.514;14.500;2023-10-19T11:05:15;27.20;37.00
81161;DHT22;70637;48.514;14.500;2023-10-19T11:10:29;27.20;37.00
81161;DHT22;70637;48.514;14.500;2023-10-19T11:13:06;27.20;37.00
81161;DHT22;70637;48.514;14.500;2023-10-19T11:15:35;27.20;37.10
81161;DHT22;70637;48.514;14.500;2023-10-19T11:18:02;27.20;37.10
81161;DHT22;70637;48.514;14.500;2023-10-19T11:20:29;27.20;37.00
81161;DHT22;70637;48.514;14.500;2023-10-19T11:22:56;27.20;37.10
81161;DHT22;70637;48.514;14.500;2023-10-19T11:25:24;27.20;37.10
81161;DHT22;70637;48.514;14.500;2023-10-19T11:27:54;27.20;37.10
81161;DHT22;70637;48.514;14.500;2023-10-19T11:30:27;27.20;37.10
81161;DHT22;70637;48.514;14.500;2023-10-19T11:32:54;27.20;37.00
81161;DHT22;70637;48.514;14.500;2023-10-19T11:35:26;27.20;37.10
81161;DHT22;70637;48.514;14.500;2023-10-19T11:37:54;27.20;37.10
81161;DHT22;70637;48.514;14.500;2023-10-19T11:40:21;27.20;37.10
81161;DHT22;70637;48.514;14.500;2023-10-19T11:42:48;27.20;37.10
81161;DHT22;70637;48.514;14.500;2023-10-19T11:45:14;27.20;37.10
81161;DHT22;70637;48.514;14.500;2023-10-19T11:47:42;27.20;37.20
81161;DHT22;70637;48.514;14.500;2023-10-19T11:50:08;27.20;37.10
81161;DHT22;70637;48.514;14.500;2023-10-19T11:52:37;27.20;37.10
81161;DHT22;70637;48.514;14.500;2023-10-19T11:55:03;27.20;37.10
81161;DHT22;70637;48.514;14.500;2023-10-19T11:57:31;27.20;37.10
81161;DHT22;70637;48.514;14.500;2023-10-19T11:59:56;27.20;37.60
81161;DHT22;70637;48.514;14.500;2023-10-19T12:02:24;27.20;37.20
81161;DHT22;70637;48.514;14.500;2023-10-19T12:04:50;27.20;37.20
81161;DHT22;70637;48.514;14.500;2023-10-19T12:07:16;27.20;37.20
81161;DHT22;70637;48.514;14.500;2023-10-19T12:09:41;27.20;37.20
81161;DHT22;70637;48.514;14.500;2023-10-19T12:12:07;27.20;37.20
81161;DHT22;70637;48.514;14.500;2023-10-19T12:14:36;27.20;37.20
81161;DHT22;70637;48.514;14.500;2023-10-19T12:17:02;27.20;37.20
81161;DHT22;70637;48.514;14.500;2023-10-19T12:19:29;27.20;37.10
81161;DHT22;70637;48.514;14.500;2023-10-19T12:21:56;27.20;37.10
81161;DHT22;70637;48.514;14.500;2023-10-19T12:24:21;27.20;37.20
81161;DHT22;70637;48.514;14.500;2023-10-19T12:26:48;27.20;37.30
81161;DHT22;70637;48.514;14.500;2023-10-19T12:29:14;27.20;37.20
81161;DHT22;70637;48.514;14.500;2023-10-19T12:31:42;27.20;37.20
81161;DHT22;70637;48.514;14.500;2023-10-19T12:34:08;27.30;37.20
81161;DHT22;70637;48.514;14.500;2023-10-19T12:36:37;27.20;37.00
81161;DHT22;70637;48.514;14.500;2023-10-19T12:39:03;27.20;36.90
81161;DHT22;70637;48.514;14.500;2023-10-19T12:41:32;27.20;36.90
81161;DHT22;70637;48.514;14.500;2023-10-19T12:43:58;27.20;36.90
81161;DHT22;70637;48.514;14.500;2023-10-19T12:46:26;27.20;36.90
81161;DHT22;70637;48.514;14.500;2023-10-19T12:48:55;27.20;36.80
81161;DHT22;70637;48.514;14.500;2023-10-19T12:51:25;27.20;36.80
81161;DHT22;70637;48.514;14.500;2023-10-19T12:53:52;27.20;36.80
81161;DHT22;70637;48.514;14.500;2023-10-19T12:56:19;27.20;36.80
81161;DHT22;70637;48.514;14.500;2023-10-19T12:58:45;27.20;36.80
81161;DHT22;70637;48.514;14.500;2023-10-19T13:01:10;27.20;36.80
81161;DHT22;70637;48.514;14.500;2023-10-19T13:03:43;27.20;36.80
81161;DHT22;70637;48.514;14.500;2023-10-19T13:06:11;27.20;36.80
81161;DHT22;70637;48.514;14.500;2023-10-19T13:08:38;27.20;36.90
81161;DHT22;70637;48.514;14.500;2023-10-19T13:11:09;27.20;36.80
81161;DHT22;70637;48.514;14.500;2023-10-19T13:13:35;27.20;36.90
81161;DHT22;70637;48.514;14.500;2023-10-19T13:16:05;27.20;36.80
81161;DHT22;70637;48.514;14.500;2023-10-19T13:18:35;27.20;36.80
81161;DHT22;70637;48.514;14.500;2023-10-19T13:21:02;27.20;36.70
81161;DHT22;70637;48.514;14.500;2023-10-19T13:23:31;27.30;36.70
81161;DHT22;70637;48.514;14.500;2023-10-19T13:26:01;27.30;36.70
81161;DHT22;70637;48.514;14.500;2023-10-19T13:28:34;27.30;36.80
81161;DHT22;70637;48.514;14.500;2023-10-19T13:31:04;27.30;36.70
81161;DHT22;70637;48.514;14.500;2023-10-19T13:33:29;27.30;36.80
81161;DHT22;70637;48.514;14.500;2023-10-19T13:35:55;27.40;36.80
81161;DHT22;70637;48.514;14.500;2023-10-19T13:38:21;27.30;36.80
81161;DHT22;70637;48.514;14.500;2023-10-19T13:40:47;27.40;36.90
81161;DHT22;70637;48.514;14.500;2023-10-19T13:43:13;27.30;36.80
81161;DHT22;70637;48.514;14.500;2023-10-19T13:45:40;27.30;36.90
81161;DHT22;70637;48.514;14.500;2023-10-19T13:48:07;27.30;36.90
81161;DHT22;70637;48.514;14.500;2023-10-19T13:50:35;27.40;37.00
81161;DHT22;70637;48.514;14.500;2023-10-19T13:53:01;27.30;36.90
81161;DHT22;70637;48.514;14.500;2023-10-19T13:55:30;27.40;37.00
81161;DHT22;70637;48.514;14.500;2023-10-19T13:57:56;27.30;36.90
81161;DHT22;70637;48.514;14.500;2023-10-19T14:00:23;27.40;37.00
81161;DHT22;70637;48.514;14.500;2023-10-19T14:03:10;27.40;37.10
81161;DHT22;70637;48.514;14.500;2023-10-19T14:05:39;27.30;37.00
81161;DHT22;70637;48.514;14.500;2023-10-19T14:08:06;27.40;37.10
81161;DHT22;70637;48.514;14.500;2023-10-19T14:10:33;27.40;37.10
81161;DHT22;70637;48.514;14.500;2023-10-19T14:12:58;27.30;37.10
81161;DHT22;70637;48.514;14.500;2023-10-19T14:15:24;27.40;37.20
81161;DHT22;70637;48.514;14.500;2023-10-19T14:17:51;27.40;37.20
81161;DHT22;70637;48.514;14.500;2023-10-19T14:20:17;27.40;37.20
81161;DHT22;70637;48.514;14.500;2023-10-19T14:22:48;27.40;37.30
81161;DHT22;70637;48.514;14.500;2023-10-19T14:25:15;27.40;37.20
81161;DHT22;70637;48.514;14.500;2023-10-19T14:27:43;27.30;38.10
81161;DHT22;70637;48.514;14.500;2023-10-19T14:30:14;27.40;37.20
81161;DHT22;70637;48.514;14.500;2023-10-19T14:32:41;27.30;37.10
81161;DHT22;70637;48.514;14.500;2023-10-19T14:35:10;27.40;38.30
81161;DHT22;70637;48.514;14.500;2023-10-19T14:37:39;27.40;37.30
81161;DHT22;70637;48.514;14.500;2023-10-19T14:40:25;27.30;37.20
81161;DHT22;70637;48.514;14.500;2023-10-19T14:42:52;27.30;38.30
81161;DHT22;70637;48.514;14.500;2023-10-19T14:45:26;27.30;37.30
81161;DHT22;70637;48.514;14.500;2023-10-19T14:47:54;27.30;37.30
81161;DHT22;70637;48.514;14.500;2023-10-19T14:50:21;27.30;37.40
81161;DHT22;70637;48.514;14.500;2023-10-19T14:52:50;27.30;37.40
81161;DHT22;70637;48.514;14.500;2023-10-19T14:55:17;27.20;37.30
81161;DHT22;70637;48.514;14.500;2023-10-19T14:57:45;27.30;37.40
81161;DHT22;70637;48.514;14.500;2023-10-19T15:00:12;27.20;37.40
81161;DHT22;70637;48.514;14.500;2023-10-19T15:02:51;27.20;37.40
81161;DHT22;70637;48.514;14.500;2023-10-19T15:05:20;27.20;37.50
81161;DHT22;70637;48.514;14.500;2023-10-19T15:07:48;27.20;37.50
81161;DHT22;70637;48.514;14.500;2023-10-19T15:10:18;27.20;37.50
81161;DHT22;70637;48.514;14.500;2023-10-19T15:12:43;27.20;37.50
81161;DHT22;70637;48.514;14.500;2023-10-19T15:15:10;27.20;37.50
81161;DHT22;70637;48.514;14.500;2023-10-19T15:17:43;27.20;37.50
81161;DHT22;70637;48.514;14.500;2023-10-19T15:20:10;27.20;37.60
81161;DHT22;70637;48.514;14.500;2023-10-19T15:22:37;27.20;37.60
81161;DHT22;70637;48.514;14.500;2023-10-19T15:25:04;27.20;37.60
81161;DHT22;70637;48.514;14.500;2023-10-19T15:27:33;27.20;37.60
81161;DHT22;70637;48.514;14.500;2023-10-19T15:29:59;27.20;37.60
81161;DHT22;70637;48.514;14.500;2023-10-19T15:32:24;27.20;37.60
81161;DHT22;70637;48.514;14.500;2023-10-19T15:34:51;27.10;37.60
81161;DHT22;70637;48.514;14.500;2023-10-19T15:37:18;27.20;37.70
81161;DHT22;70637;48.514;14.500;2023-10-19T15:39:43;27.10;37.60
81161;DHT22;70637;48.514;14.500;2023-10-19T15:42:10;27.10;37.70
81161;DHT22;70637;48.514;14.500;2023-10-19T15:44:39;27.10;37.60